createdAt,value
2022-10-08T00:00:25.478Z,100.00
2022-10-08T00:02:55.231Z,100.00
2022-10-08T00:05:24.440Z,100.00
2022-10-08T00:07:53.967Z,100.00
2022-10-08T00:10:23.182Z,100.00
2022-10-08T00:12:52.408Z,100.00
2022-10-08T00:15:21.641Z,100.00
2022-10-08T00:17:51.381Z,100.00
2022-10-08T00:20:22.059Z,100.00
2022-10-08T00:22:51.402Z,100.00
2022-10-08T00:25:20.783Z,100.00
2022-10-08T00:27:51.179Z,100.00
2022-10-08T00:30:20.773Z,100.00
2022-10-08T00:32:51.035Z,100.00
2022-10-08T00:35:20.268Z,100.00
2022-10-08T00:37:49.642Z,100.00
2022-10-08T00:40:19.023Z,100.00
2022-10-08T00:42:49.062Z,100.00
2022-10-08T00:45:18.614Z,100.00
2022-10-08T00:47:49.729Z,100.00
2022-10-08T00:50:25.173Z,100.00
2022-10-08T00:53:00.000Z,100.00
2022-10-08T00:55:30.478Z,100.00
2022-10-08T00:58:03.420Z,100.00
2022-10-08T01:00:33.468Z,100.00
2022-10-08T01:03:03.880Z,100.00
2022-10-08T01:05:39.429Z,100.00
2022-10-08T01:08:17.600Z,100.00
2022-10-08T01:11:01.879Z,100.00
2022-10-08T01:13:46.256Z,100.00
2022-10-08T01:16:39.111Z,100.00
2022-10-08T01:19:17.804Z,100.00
2022-10-08T01:21:56.112Z,100.00
2022-10-08T01:24:58.456Z,100.00
2022-10-08T01:27:43.243Z,100.00
2022-10-08T01:30:14.857Z,100.00
2022-10-08T01:32:48.698Z,100.00
2022-10-08T01:35:27.467Z,100.00
2022-10-08T01:37:59.198Z,100.00
2022-10-08T01:40:30.822Z,100.00
2022-10-08T01:43:01.738Z,100.00
2022-10-08T01:45:34.205Z,100.00
2022-10-08T01:48:09.169Z,100.00
2022-10-08T01:50:44.444Z,100.00
2022-10-08T01:53:15.805Z,100.00
2022-10-08T01:55:53.680Z,100.00
2022-10-08T01:58:27.867Z,100.00
2022-10-08T02:01:00.196Z,100.00
2022-10-08T02:03:29.583Z,100.00
2022-10-08T02:06:00.449Z,100.00
2022-10-08T02:08:29.912Z,100.00
2022-10-08T02:10:59.159Z,100.00
2022-10-08T02:13:28.548Z,100.00
2022-10-08T02:16:11.307Z,100.00
2022-10-08T02:18:44.493Z,100.00
2022-10-08T02:21:25.934Z,100.00
2022-10-08T02:23:58.459Z,100.00
2022-10-08T02:26:30.855Z,100.00
2022-10-08T02:29:06.277Z,100.00
2022-10-08T02:31:41.709Z,100.00
2022-10-08T02:34:14.016Z,100.00
2022-10-08T02:36:46.297Z,100.00
2022-10-08T02:39:17.116Z,100.00
2022-10-08T02:41:49.587Z,100.00
2022-10-08T02:44:37.000Z,100.00
2022-10-08T02:47:08.823Z,100.00
2022-10-08T02:49:41.234Z,100.00
2022-10-08T02:52:10.983Z,100.00
2022-10-08T02:54:42.544Z,100.00
2022-10-08T02:57:18.489Z,100.00
2022-10-08T02:59:48.807Z,100.00
2022-10-08T03:02:20.983Z,100.00
2022-10-08T03:04:52.966Z,100.00
2022-10-08T03:07:24.216Z,100.00
2022-10-08T03:09:55.119Z,100.00
2022-10-08T03:12:25.462Z,100.00
2022-10-08T03:14:54.836Z,100.00
2022-10-08T03:17:38.104Z,100.00
2022-10-08T03:20:08.467Z,100.00
2022-10-08T03:22:38.179Z,100.00
2022-10-08T03:25:07.694Z,100.00
2022-10-08T03:27:37.091Z,100.00
2022-10-08T03:30:07.621Z,100.00
2022-10-08T03:32:36.984Z,100.00
2022-10-08T03:35:06.674Z,100.00
2022-10-08T03:37:36.307Z,100.00
2022-10-08T03:40:06.332Z,100.00
2022-10-08T03:42:35.701Z,100.00
2022-10-08T03:45:05.658Z,100.00
2022-10-08T03:47:34.927Z,100.00
2022-10-08T03:50:04.496Z,100.00
2022-10-08T03:52:33.831Z,100.00
2022-10-08T03:55:03.123Z,100.00
2022-10-08T03:57:32.590Z,100.00
2022-10-08T04:00:01.813Z,100.00
2022-10-08T04:02:35.855Z,100.00
2022-10-08T04:05:05.491Z,100.00
2022-10-08T04:07:34.909Z,100.00
2022-10-08T04:10:04.379Z,100.00
2022-10-08T04:12:33.842Z,100.00
2022-10-08T04:15:03.066Z,100.00
2022-10-08T04:17:32.362Z,100.00
2022-10-08T04:20:01.633Z,100.00
2022-10-08T04:22:31.192Z,100.00
2022-10-08T04:25:00.478Z,100.00
2022-10-08T04:27:29.821Z,100.00
2022-10-08T04:29:59.211Z,100.00
2022-10-08T04:32:30.885Z,100.00
2022-10-08T04:35:00.151Z,100.00
2022-10-08T04:37:29.666Z,100.00
2022-10-08T04:39:59.033Z,100.00
2022-10-08T04:42:28.263Z,100.00
2022-10-08T04:44:57.647Z,100.00
2022-10-08T04:47:26.872Z,100.00
2022-10-08T04:49:56.366Z,100.00
2022-10-08T04:52:25.861Z,100.00
2022-10-08T04:54:55.261Z,100.00
2022-10-08T04:57:24.556Z,100.00
2022-10-08T05:00:17.075Z,100.00
2022-10-08T05:02:24.982Z,100.00
2022-10-08T05:04:54.432Z,100.00
2022-10-08T05:07:24.469Z,100.00
2022-10-08T05:09:53.980Z,100.00
2022-10-08T05:12:23.232Z,100.00
2022-10-08T05:14:52.749Z,100.00
2022-10-08T05:17:21.993Z,100.00
2022-10-08T05:19:51.213Z,100.00
2022-10-08T05:22:20.639Z,100.00
2022-10-08T05:24:50.072Z,100.00
2022-10-08T05:27:19.429Z,100.00
2022-10-08T05:29:48.678Z,100.00
2022-10-08T05:32:18.174Z,100.00
2022-10-08T05:34:47.508Z,100.00
2022-10-08T05:37:16.825Z,100.00
2022-10-08T05:39:46.081Z,100.00
2022-10-08T05:42:15.454Z,100.00
2022-10-08T05:44:45.571Z,100.00
2022-10-08T05:47:14.955Z,100.00
2022-10-08T05:49:44.362Z,100.00
2022-10-08T05:52:13.807Z,100.00
2022-10-08T05:54:43.162Z,100.00
2022-10-08T05:57:12.725Z,100.00
2022-10-08T05:59:42.099Z,100.00
2022-10-08T06:02:12.830Z,100.00
2022-10-08T06:04:42.238Z,100.00
2022-10-08T06:07:11.725Z,100.00
2022-10-08T06:09:40.964Z,100.00
2022-10-08T06:12:10.382Z,100.00
2022-10-08T06:14:39.666Z,100.00
2022-10-08T06:17:09.145Z,100.00
2022-10-08T06:19:38.434Z,100.00
2022-10-08T06:22:07.965Z,100.00
2022-10-08T06:24:37.207Z,100.00
2022-10-08T06:27:06.465Z,100.00
2022-10-08T06:29:35.665Z,100.00
2022-10-08T06:32:05.022Z,100.00
2022-10-08T06:34:34.471Z,100.00
2022-10-08T06:37:03.957Z,100.00
2022-10-08T06:39:33.353Z,100.00
2022-10-08T06:42:02.594Z,100.00
2022-10-08T06:44:33.603Z,100.00
2022-10-08T06:47:03.052Z,100.00
2022-10-08T06:49:32.411Z,100.00
2022-10-08T06:52:01.802Z,100.00
2022-10-08T06:54:31.027Z,100.00
2022-10-08T06:57:00.466Z,100.00
2022-10-08T06:59:29.897Z,100.00
2022-10-08T07:01:59.317Z,100.00
2022-10-08T07:04:28.599Z,100.00
2022-10-08T07:06:57.928Z,100.00
2022-10-08T07:09:27.137Z,100.00
2022-10-08T07:11:56.515Z,100.00
2022-10-08T07:14:25.870Z,100.00
2022-10-08T07:16:55.308Z,100.00
2022-10-08T07:19:25.224Z,100.00
2022-10-08T07:21:57.889Z,100.00
2022-10-08T07:24:25.486Z,100.00
2022-10-08T07:26:54.952Z,100.00
2022-10-08T07:29:25.877Z,100.00
2022-10-08T07:31:55.551Z,100.00
2022-10-08T07:34:24.929Z,100.00
2022-10-08T07:36:54.341Z,100.00
2022-10-08T07:39:23.649Z,100.00
2022-10-08T07:41:52.949Z,100.00
2022-10-08T07:44:22.204Z,100.00
2022-10-08T07:46:53.766Z,100.00
2022-10-08T07:49:22.969Z,100.00
2022-10-08T07:51:52.248Z,100.00
2022-10-08T07:54:21.543Z,100.00
2022-10-08T07:56:50.915Z,100.00
2022-10-08T07:59:20.141Z,100.00
2022-10-08T08:01:49.618Z,100.00
2022-10-08T08:04:18.884Z,100.00
2022-10-08T08:06:48.931Z,100.00
2022-10-08T08:09:18.635Z,99.65
2022-10-08T08:11:49.515Z,100.00
2022-10-08T08:14:19.770Z,96.92
2022-10-08T08:16:49.349Z,95.14
2022-10-08T08:19:18.780Z,95.83
2022-10-08T08:21:48.012Z,91.43
2022-10-08T08:24:17.474Z,87.79
2022-10-08T08:26:46.971Z,85.07
2022-10-08T08:29:19.917Z,82.08
2022-10-08T08:31:50.169Z,85.26
2022-10-08T08:34:22.632Z,89.10
2022-10-08T08:36:54.945Z,84.35
2022-10-08T08:39:27.681Z,79.84
2022-10-08T08:42:18.360Z,73.72
2022-10-08T08:44:53.097Z,68.29
2022-10-08T08:47:34.052Z,63.94
2022-10-08T08:50:21.337Z,60.90
2022-10-08T08:52:50.729Z,54.67
2022-10-08T08:55:23.376Z,52.54
2022-10-08T08:58:01.516Z,51.64
2022-10-08T09:00:33.979Z,53.63
2022-10-08T09:03:21.291Z,55.81
2022-10-08T09:05:53.934Z,55.81
2022-10-08T09:08:45.664Z,59.02
2022-10-08T09:11:17.307Z,55.65
2022-10-08T09:13:51.966Z,58.48
2022-10-08T09:16:21.286Z,51.80
2022-10-08T09:18:52.417Z,50.68
2022-10-08T09:21:22.386Z,52.94
2022-10-08T09:23:51.628Z,52.94
2022-10-08T09:26:23.517Z,53.40
2022-10-08T09:28:58.060Z,58.51
2022-10-08T09:31:39.318Z,54.77
2022-10-08T09:34:15.826Z,49.78
2022-10-08T09:36:47.707Z,51.88
2022-10-08T09:39:25.508Z,53.33
2022-10-08T09:42:14.022Z,53.14
2022-10-08T09:44:51.594Z,49.72
2022-10-08T09:47:23.066Z,53.40
2022-10-08T09:50:07.704Z,49.68
2022-10-08T09:52:37.938Z,49.38
2022-10-08T09:55:13.542Z,47.21
2022-10-08T09:57:45.022Z,45.27
2022-10-08T10:00:31.506Z,48.50
2022-10-08T10:03:01.961Z,47.22
2022-10-08T10:05:34.286Z,50.33
2022-10-08T10:08:03.935Z,48.83
2022-10-08T10:10:38.870Z,50.50
2022-10-08T10:13:13.317Z,47.79
2022-10-08T10:15:51.590Z,50.69
2022-10-08T10:18:23.234Z,55.34
2022-10-08T10:20:57.643Z,60.88
2022-10-08T10:23:41.759Z,51.91
2022-10-08T10:26:14.359Z,56.96
2022-10-08T10:28:55.924Z,51.96
2022-10-08T10:31:43.615Z,52.16
2022-10-08T10:34:21.791Z,46.20
2022-10-08T10:36:53.018Z,46.20
2022-10-08T10:39:33.609Z,46.67
2022-10-08T10:42:22.451Z,46.67
2022-10-08T10:45:04.488Z,45.66
2022-10-08T10:47:33.877Z,44.15
2022-10-08T10:50:03.625Z,48.18
2022-10-08T10:52:38.802Z,47.24
2022-10-08T10:55:22.986Z,44.67
2022-10-08T10:58:15.982Z,46.81
2022-10-08T11:07:34.437Z,45.97
2022-10-08T11:10:21.770Z,48.16
2022-10-08T11:12:56.567Z,47.92
2022-10-08T11:15:40.677Z,47.98
2022-10-08T11:18:27.928Z,44.42
2022-10-08T11:21:21.174Z,44.42
2022-10-08T11:24:28.606Z,42.80
2022-10-08T11:27:03.740Z,45.53
2022-10-08T11:29:55.343Z,44.79
2022-10-08T11:32:26.897Z,43.86
2022-10-08T11:35:05.208Z,43.66
2022-10-08T11:37:37.585Z,45.65
2022-10-08T11:40:30.951Z,48.39
2022-10-08T11:43:27.712Z,47.28
2022-10-08T11:46:22.722Z,47.28
2022-10-08T11:48:52.113Z,45.15
2022-10-08T11:51:24.758Z,48.87
2022-10-08T11:54:13.176Z,49.55
2022-10-08T11:56:53.233Z,51.86
2022-10-08T11:59:31.563Z,49.03
2022-10-08T12:02:25.410Z,51.50
2022-10-08T12:04:57.056Z,50.93
2022-10-08T12:07:34.177Z,46.40
2022-10-08T12:10:09.614Z,48.06
2022-10-08T12:12:55.942Z,48.43
2022-10-08T12:15:28.949Z,49.37
2022-10-08T12:18:00.919Z,49.85
2022-10-08T12:20:33.738Z,47.88
2022-10-08T12:23:10.820Z,49.13
2022-10-08T12:25:49.424Z,52.65
2022-10-08T12:28:24.989Z,50.28
2022-10-08T12:30:56.231Z,49.36
2022-10-08T12:33:26.757Z,50.62
2022-10-08T12:36:10.839Z,53.59
2022-10-08T12:38:52.480Z,49.59
2022-10-08T12:41:26.675Z,51.06
2022-10-08T12:44:15.889Z,50.55
2022-10-08T12:47:05.280Z,49.74
2022-10-08T12:49:49.646Z,50.55
2022-10-08T12:52:20.579Z,50.25
2022-10-08T12:54:57.972Z,47.90
2022-10-08T12:57:35.658Z,49.94
2022-10-08T13:00:14.249Z,48.37
2022-10-08T13:02:43.798Z,48.60
2022-10-08T13:05:31.403Z,51.41
2022-10-08T13:08:03.872Z,52.65
2022-10-08T13:10:32.395Z,52.21
2022-10-08T13:13:06.547Z,48.86
2022-10-08T13:15:36.367Z,51.74
2022-10-08T13:18:17.058Z,50.80
2022-10-08T13:21:00.292Z,50.96
2022-10-08T13:23:41.661Z,52.37
2022-10-08T13:26:39.276Z,53.38
2022-10-08T13:29:26.749Z,54.66
2022-10-08T13:32:08.794Z,54.53
2022-10-08T13:34:43.090Z,53.68
2022-10-08T13:37:14.728Z,53.87
2022-10-08T13:40:01.358Z,53.81
2022-10-08T13:42:42.445Z,55.39
2022-10-08T13:45:22.666Z,58.42
2022-10-08T13:47:52.430Z,58.66
2022-10-08T13:50:22.942Z,55.92
2022-10-08T13:52:55.088Z,57.06
2022-10-08T13:55:32.454Z,60.46
2022-10-08T13:58:03.325Z,63.89
2022-10-08T14:00:35.610Z,64.80
2022-10-08T14:03:04.917Z,66.69
2022-10-08T14:05:38.422Z,65.55
2022-10-08T14:08:23.055Z,67.14
2022-10-08T14:10:54.477Z,62.39
2022-10-08T14:13:24.058Z,61.20
2022-10-08T14:15:53.504Z,60.92
2022-10-08T14:18:23.285Z,61.89
2022-10-08T14:20:52.849Z,58.21
2022-10-08T14:23:22.135Z,59.41
2022-10-08T14:25:53.769Z,56.87
2022-10-08T14:28:23.292Z,57.58
2022-10-08T14:30:52.844Z,58.97
2022-10-08T14:33:22.210Z,62.16
2022-10-08T14:35:53.057Z,62.52
2022-10-08T14:38:22.452Z,61.74
2022-10-08T14:40:51.920Z,66.44
2022-10-08T14:43:22.053Z,65.33
2022-10-08T14:45:51.554Z,65.28
2022-10-08T14:48:20.969Z,67.62
2022-10-08T14:50:50.277Z,62.81
2022-10-08T14:53:19.658Z,64.20
2022-10-08T14:56:10.949Z,64.66
2022-10-08T14:58:20.739Z,64.47
2022-10-08T15:00:55.004Z,69.48
2022-10-08T15:03:24.589Z,71.36
2022-10-08T15:05:54.812Z,72.52
2022-10-08T15:08:24.113Z,72.49
2022-10-08T15:10:53.541Z,72.13
2022-10-08T15:13:23.142Z,72.13
2022-10-08T15:15:52.363Z,74.94
2022-10-08T15:18:21.757Z,75.02
2022-10-08T15:21:01.694Z,74.26
2022-10-08T15:23:31.226Z,75.61
2022-10-08T15:26:02.266Z,75.09
2022-10-08T15:28:32.292Z,74.92
2022-10-08T15:31:04.014Z,73.63
2022-10-08T15:33:38.640Z,74.45
2022-10-08T15:36:28.582Z,75.75
2022-10-08T15:39:03.126Z,77.00
2022-10-08T15:41:36.923Z,76.01
2022-10-08T15:44:18.550Z,72.90
2022-10-08T15:46:48.755Z,72.59
2022-10-08T15:49:18.280Z,72.79
2022-10-08T15:51:47.503Z,72.37
2022-10-08T15:54:17.128Z,72.08
2022-10-08T15:56:46.338Z,73.29
2022-10-08T15:59:15.576Z,73.95
2022-10-08T16:01:44.855Z,74.31
2022-10-08T16:04:15.121Z,74.67
2022-10-08T16:06:45.968Z,75.93
2022-10-08T16:09:16.341Z,75.82
2022-10-08T16:11:46.277Z,76.81
2022-10-08T16:14:21.069Z,78.31
2022-10-08T16:16:51.280Z,79.10
2022-10-08T16:19:22.919Z,81.03
2022-10-08T16:21:53.264Z,80.64
2022-10-08T16:24:23.009Z,81.03
2022-10-08T16:26:52.545Z,81.99
2022-10-08T16:29:22.100Z,82.28
2022-10-08T16:31:51.336Z,83.24
2022-10-08T16:34:26.690Z,83.70
2022-10-08T16:36:57.842Z,84.64
2022-10-08T16:39:27.925Z,85.51
2022-10-08T16:41:57.115Z,85.02
2022-10-08T16:44:26.344Z,86.59
2022-10-08T16:46:55.583Z,85.75
2022-10-08T16:49:27.427Z,86.12
2022-10-08T16:51:59.628Z,86.40
2022-10-08T16:54:29.510Z,87.87
2022-10-08T16:56:58.986Z,87.92
2022-10-08T16:59:29.745Z,87.64
2022-10-08T17:02:00.360Z,87.46
2022-10-08T17:04:32.663Z,89.27
2022-10-08T17:07:01.939Z,89.44
2022-10-08T17:09:32.399Z,89.71
2022-10-08T17:12:01.974Z,90.21
2022-10-08T17:14:33.145Z,90.42
2022-10-08T17:17:02.484Z,90.54
2022-10-08T17:19:31.685Z,91.44
2022-10-08T17:22:01.123Z,91.93
2022-10-08T17:24:30.333Z,90.24
2022-10-08T17:26:59.556Z,91.62
2022-10-08T17:29:28.906Z,90.57
2022-10-08T17:31:59.823Z,90.36
2022-10-08T17:34:29.471Z,89.73
2022-10-08T17:36:58.969Z,89.49
2022-10-08T17:39:28.479Z,89.76
2022-10-08T17:41:57.883Z,89.22
2022-10-08T17:44:27.242Z,89.33
2022-10-08T17:46:56.695Z,90.57
2022-10-08T17:49:26.143Z,89.84
2022-10-08T17:51:55.560Z,90.96
2022-10-08T17:54:25.104Z,92.05
2022-10-08T17:56:54.824Z,91.77
2022-10-08T17:59:24.117Z,92.82
2022-10-08T18:01:53.592Z,95.24
2022-10-08T18:04:23.146Z,95.42
2022-10-08T18:06:52.644Z,97.22
2022-10-08T18:09:22.332Z,98.25
2022-10-08T18:11:53.524Z,98.30
2022-10-08T18:14:23.530Z,99.81
2022-10-08T18:16:52.939Z,100.00
2022-10-08T18:19:22.435Z,100.00
2022-10-08T18:21:51.954Z,100.00
2022-10-08T18:24:21.438Z,100.00
2022-10-08T18:26:51.674Z,100.00
2022-10-08T18:29:21.168Z,100.00
2022-10-08T18:31:50.978Z,100.00
2022-10-08T18:34:21.064Z,100.00
2022-10-08T18:36:50.426Z,100.00
2022-10-08T18:39:26.095Z,100.00
2022-10-08T18:41:52.609Z,100.00
2022-10-08T18:44:24.071Z,100.00
2022-10-08T18:46:53.874Z,100.00
2022-10-08T18:49:28.100Z,100.00
2022-10-08T18:51:58.251Z,100.00
2022-10-08T18:54:27.585Z,100.00
2022-10-08T18:56:59.140Z,100.00
2022-10-08T18:59:28.529Z,100.00
2022-10-08T19:01:59.585Z,100.00
2022-10-08T19:04:29.105Z,100.00
2022-10-08T19:06:58.691Z,100.00
2022-10-08T19:09:27.998Z,100.00
2022-10-08T19:11:57.756Z,100.00
2022-10-08T19:14:28.281Z,100.00
2022-10-08T19:16:58.373Z,100.00
2022-10-08T19:19:29.586Z,100.00
2022-10-08T19:22:02.306Z,100.00
2022-10-08T19:24:31.710Z,100.00
2022-10-08T19:27:01.074Z,100.00
2022-10-08T19:29:32.326Z,100.00
2022-10-08T19:32:01.741Z,100.00
2022-10-08T19:34:31.035Z,100.00
2022-10-08T19:37:00.642Z,100.00
2022-10-08T19:39:31.030Z,100.00
2022-10-08T19:42:00.489Z,100.00
2022-10-08T19:44:29.751Z,100.00
2022-10-08T19:46:59.203Z,100.00
2022-10-08T19:49:28.445Z,100.00
2022-10-08T19:51:57.757Z,100.00
2022-10-08T19:54:27.068Z,100.00
2022-10-08T19:56:56.481Z,100.00
2022-10-08T19:59:25.783Z,100.00
2022-10-08T20:01:55.202Z,100.00
2022-10-08T20:04:24.627Z,100.00
2022-10-08T20:06:53.968Z,100.00
2022-10-08T20:09:23.536Z,100.00
2022-10-08T20:11:55.230Z,100.00
2022-10-08T20:14:24.597Z,100.00
2022-10-08T20:16:53.852Z,100.00
2022-10-08T20:19:23.881Z,100.00
2022-10-08T20:21:56.690Z,100.00
2022-10-08T20:24:26.391Z,100.00
2022-10-08T20:26:55.635Z,100.00
2022-10-08T20:29:29.995Z,100.00
2022-10-08T20:31:57.421Z,100.00
2022-10-08T20:34:29.580Z,100.00
2022-10-08T20:37:00.910Z,100.00
2022-10-08T20:39:30.901Z,100.00
2022-10-08T20:42:00.187Z,100.00
2022-10-08T20:44:29.516Z,100.00
2022-10-08T20:47:00.608Z,100.00
2022-10-08T20:49:31.629Z,100.00
2022-10-08T20:52:00.988Z,100.00
2022-10-08T20:54:30.444Z,100.00
2022-10-08T20:56:59.689Z,100.00
2022-10-08T20:59:29.102Z,100.00
2022-10-08T21:01:58.678Z,100.00
2022-10-08T21:04:28.257Z,100.00
2022-10-08T21:06:57.533Z,100.00
2022-10-08T21:09:26.924Z,100.00
2022-10-08T21:11:56.184Z,100.00
2022-10-08T21:14:25.598Z,100.00
2022-10-08T21:16:54.841Z,100.00
2022-10-08T21:19:24.306Z,100.00
2022-10-08T21:21:53.544Z,100.00
2022-10-08T21:24:22.935Z,100.00
2022-10-08T21:26:52.166Z,100.00
2022-10-08T21:29:21.458Z,100.00
2022-10-08T21:31:50.902Z,100.00
2022-10-08T21:34:20.475Z,100.00
2022-10-08T21:36:50.070Z,100.00
2022-10-08T21:39:19.322Z,100.00
2022-10-08T21:41:48.664Z,100.00
2022-10-08T21:44:18.136Z,100.00
2022-10-08T21:46:47.386Z,100.00
2022-10-08T21:49:20.460Z,100.00
2022-10-08T21:51:49.682Z,100.00
2022-10-08T21:54:18.980Z,100.00
2022-10-08T21:56:48.439Z,100.00
2022-10-08T21:59:18.251Z,100.00
2022-10-08T22:01:51.518Z,100.00
2022-10-08T22:04:22.772Z,100.00
2022-10-08T22:06:54.768Z,100.00
2022-10-08T22:09:26.533Z,100.00
2022-10-08T22:11:57.488Z,100.00
2022-10-08T22:14:27.444Z,100.00
2022-10-08T22:16:56.870Z,100.00
2022-10-08T22:19:26.464Z,100.00
2022-10-08T22:21:55.716Z,100.00
2022-10-08T22:24:25.396Z,100.00
2022-10-08T22:26:54.806Z,100.00
2022-10-08T22:29:24.053Z,100.00
2022-10-08T22:31:54.988Z,100.00
2022-10-08T22:34:24.273Z,100.00
2022-10-08T22:36:53.587Z,100.00
2022-10-08T22:39:22.941Z,100.00
2022-10-08T22:41:52.338Z,100.00
2022-10-08T22:44:22.116Z,100.00
2022-10-08T22:46:51.346Z,100.00
2022-10-08T22:49:20.629Z,100.00
2022-10-08T22:51:50.278Z,100.00
2022-10-08T22:54:19.812Z,100.00
2022-10-08T22:56:49.136Z,100.00
2022-10-08T22:59:18.568Z,100.00
2022-10-08T23:01:49.484Z,100.00
2022-10-08T23:04:18.914Z,100.00
2022-10-08T23:06:48.320Z,100.00
2022-10-08T23:09:17.559Z,100.00
2022-10-08T23:11:46.982Z,100.00
2022-10-08T23:14:16.175Z,100.00
2022-10-08T23:16:46.208Z,100.00
2022-10-08T23:19:16.694Z,100.00
2022-10-08T23:21:46.047Z,100.00
2022-10-08T23:24:15.245Z,100.00
2022-10-08T23:26:44.564Z,100.00
2022-10-08T23:29:13.790Z,100.00
2022-10-08T23:31:43.356Z,100.00
2022-10-08T23:34:12.738Z,100.00
2022-10-08T23:36:43.719Z,100.00
2022-10-08T23:39:16.115Z,100.00
2022-10-08T23:41:45.709Z,100.00
2022-10-08T23:44:15.074Z,100.00
2022-10-08T23:46:44.687Z,100.00
2022-10-08T23:49:14.237Z,100.00
2022-10-08T23:51:43.644Z,100.00
2022-10-08T23:54:12.888Z,100.00
2022-10-08T23:56:42.323Z,100.00
2022-10-08T23:59:11.656Z,100.00
